Time;durP1;ratioP1;P1;durP2;ratioP2;P2;SDS_P1;SDS_P2;PMS_P1;PMS_P2;Temp;Humidity;BMP_temperature;BMP_pressure;BME280_temperature;BME280_humidity;BME280_pressure;Samples;Min_cycle;Max_cycle;Signal;HPM_P1;HPM_P2
2022/07/02 00:02:28;;;;;;;3.87;2.72;;;;;;;20.98;58.46;100634.89;1651330;86;21114;-61
2022/07/02 00:05:04;;;;;;;3.20;2.83;;;;;;;20.96;58.38;100637.64;1651193;86;21494;-60
2022/07/02 00:07:34;;;;;;;3.45;2.90;;;;;;;20.92;58.42;100627.57;1644739;87;21059;-62
2022/07/02 00:10:04;;;;;;;5.83;2.90;;;;;;;20.91;58.67;100625.05;1625669;88;21192;-62
2022/07/02 00:12:34;;;;;;;5.20;3.10;;;;;;;20.88;58.87;100627.80;1651242;86;21054;-60
2022/07/02 00:15:05;;;;;;;6.90;3.30;;;;;;;20.83;59.03;100638.88;1631669;86;21095;-61
2022/07/02 00:17:34;;;;;;;5.80;3.25;;;;;;;20.77;58.98;100643.52;1636994;87;21070;-62
2022/07/02 00:20:04;;;;;;;3.85;2.80;;;;;;;20.71;59.13;100640.37;1667289;85;21130;-61
2022/07/02 00:22:34;;;;;;;4.72;2.77;;;;;;;20.73;59.22;100638.72;1677058;84;21036;-62
2022/07/02 00:25:07;;;;;;;5.42;3.00;;;;;;;20.72;59.30;100632.86;1675540;85;21525;-61
2022/07/02 00:27:37;;;;;;;5.08;3.05;;;;;;;20.69;59.60;100641.19;1677232;85;21486;-62
2022/07/02 00:30:07;;;;;;;4.75;3.30;;;;;;;20.67;59.78;100646.17;1679574;85;21087;-61
2022/07/02 00:32:37;;;;;;;4.40;3.33;;;;;;;20.67;59.75;100648.11;1678650;85;21042;-62
2022/07/02 00:35:14;;;;;;;3.98;2.70;;;;;;;20.65;59.66;100652.55;1658957;85;21075;-61
2022/07/02 00:37:44;;;;;;;4.67;2.70;;;;;;;20.63;59.66;100651.13;1675650;84;21058;-60
2022/07/02 00:40:14;;;;;;;3.52;2.80;;;;;;;20.60;59.67;100650.25;1679868;85;21082;-61
2022/07/02 00:42:45;;;;;;;4.53;3.27;;;;;;;20.57;59.76;100644.64;1676944;85;21687;-61
2022/07/02 00:45:14;;;;;;;3.75;2.67;;;;;;;20.50;59.97;100646.77;1674441;85;21036;-61
2022/07/02 00:47:43;;;;;;;3.50;2.87;;;;;;;20.45;60.19;100648.94;1651210;84;21595;-60
2022/07/02 00:50:13;;;;;;;3.80;2.60;;;;;;;20.41;60.37;100654.72;1679660;85;21046;-61
2022/07/02 00:52:42;;;;;;;3.65;3.02;;;;;;;20.38;60.54;100651.03;1680601;85;21577;-60
2022/07/02 00:55:12;;;;;;;3.77;2.70;;;;;;;20.37;60.64;100650.73;1678980;84;21066;-62
2022/07/02 00:57:41;;;;;;;4.15;2.85;;;;;;;20.34;60.77;100653.19;1664936;85;21070;-62
2022/07/02 01:00:12;;;;;;;4.00;2.87;;;;;;;20.31;61.05;100653.70;1681725;85;21058;-61
2022/07/02 01:02:48;;;;;;;4.33;2.62;;;;;;;20.29;61.34;100651.17;1676012;85;21114;-61
2022/07/02 01:05:20;;;;;;;5.37;2.80;;;;;;;20.31;61.23;100657.87;1675527;85;21093;-61
2022/07/02 01:10:48;;;;;;;6.62;3.30;;;;;;;20.20;61.48;100664.68;1675704;85;21042;-61
2022/07/02 01:13:18;;;;;;;8.03;3.20;;;;;;;20.18;61.48;100672.98;1672439;85;21058;-61
2022/07/02 01:15:49;;;;;;;7.75;3.08;;;;;;;20.20;61.63;100680.53;1686961;85;21047;-61
2022/07/02 01:18:19;;;;;;;3.83;2.98;;;;;;;20.24;61.72;100688.67;1677855;85;21041;-61
2022/07/02 01:20:49;;;;;;;3.77;2.90;;;;;;;20.23;61.79;100688.37;1644188;86;21532;-61
2022/07/02 01:23:20;;;;;;;3.72;2.85;;;;;;;20.26;61.70;100684.53;1637086;87;21546;-61
2022/07/02 01:25:52;;;;;;;5.58;3.25;;;;;;;20.29;61.65;100687.36;1632251;87;21474;-60
2022/07/02 01:28:22;;;;;;;5.80;3.40;;;;;;;20.24;61.87;100690.91;1651332;86;21094;-60
2022/07/02 01:30:52;;;;;;;6.97;3.05;;;;;;;20.25;61.99;100690.35;1644488;87;21500;-61
2022/07/02 01:33:21;;;;;;;4.25;3.08;;;;;;;20.26;61.96;100688.70;1617477;89;21128;-62
2022/07/02 01:35:51;;;;;;;6.40;3.17;;;;;;;20.30;61.78;100690.98;1648525;86;21071;-62
2022/07/02 01:38:20;;;;;;;5.37;3.25;;;;;;;20.28;61.57;100696.80;1655089;86;21556;-60
2022/07/02 01:40:49;;;;;;;5.72;3.30;;;;;;;20.27;61.61;100695.11;1643790;87;21133;-62
2022/07/02 01:43:19;;;;;;;8.68;3.55;;;;;;;20.27;61.54;100703.47;1631839;87;21019;-61
2022/07/02 01:45:49;;;;;;;4.55;3.70;;;;;;;20.28;61.62;100699.58;1643910;87;21212;-61
2022/07/02 01:48:18;;;;;;;5.53;3.30;;;;;;;20.26;61.64;100703.17;1634236;87;21074;-61
2022/07/02 01:50:48;;;;;;;4.40;3.12;;;;;;;20.26;61.86;100701.78;1631119;87;21027;-60
2022/07/02 01:53:19;;;;;;;5.12;3.37;;;;;;;20.24;61.82;100705.36;1617536;89;21083;-61
2022/07/02 01:55:50;;;;;;;6.90;3.60;;;;;;;20.22;61.97;100700.60;1651102;86;21093;-61
2022/07/02 01:58:20;;;;;;;5.40;3.33;;;;;;;20.21;61.95;100695.58;1652790;86;21083;-61
2022/07/02 02:00:52;;;;;;;5.28;3.40;;;;;;;20.22;61.79;100708.40;1645105;87;21071;-61
2022/07/02 02:03:22;;;;;;;5.53;3.00;;;;;;;20.23;61.70;100707.84;1619479;88;21081;-62
2022/07/02 02:05:54;;;;;;;3.40;2.95;;;;;;;20.23;61.50;100713.42;1662151;86;21104;-60
2022/07/02 02:08:23;;;;;;;5.05;3.10;;;;;;;20.23;60.62;100718.98;1645272;86;21093;-63
2022/07/02 02:10:52;;;;;;;4.92;3.55;;;;;;;20.30;60.32;100719.66;1645229;87;21130;-61
2022/07/02 02:13:21;;;;;;;4.25;3.50;;;;;;;20.38;59.99;100726.73;1645247;87;21101;-61
2022/07/02 02:15:51;;;;;;;7.78;3.00;;;;;;;20.43;59.85;100725.45;1640703;87;21571;-61
2022/07/02 02:18:20;;;;;;;4.47;3.17;;;;;;;20.46;59.61;100727.72;1625586;87;21649;-61
2022/07/02 02:20:49;;;;;;;5.15;3.20;;;;;;;20.50;59.41;100726.95;1609616;88;21125;-63
2022/07/02 02:23:19;;;;;;;7.28;3.50;;;;;;;20.50;59.27;100720.00;1607292;89;21080;-62
2022/07/02 02:25:48;;;;;;;5.50;3.42;;;;;;;20.50;59.19;100728.90;1618944;88;21023;-62
2022/07/02 02:28:19;;;;;;;5.25;3.40;;;;;;;20.51;58.86;100725.02;1617948;88;21062;-61
2022/07/02 02:30:49;;;;;;;8.45;3.72;;;;;;;20.52;58.80;100713.62;1618862;88;21490;-62
2022/07/02 02:33:18;;;;;;;7.20;3.60;;;;;;;20.57;58.45;100723.44;1617677;88;21042;-61
2022/07/02 02:35:48;;;;;;;5.53;3.35;;;;;;;20.62;58.29;100712.09;1599889;89;21106;-61
2022/07/02 02:38:18;;;;;;;6.35;3.58;;;;;;;20.64;58.01;100719.63;1598447;88;21047;-61
2022/07/02 02:40:47;;;;;;;6.12;3.60;;;;;;;20.65;57.70;100708.23;1604287;89;21125;-59
2022/07/02 02:43:17;;;;;;;7.80;3.40;;;;;;;20.68;57.71;100719.41;1628022;88;21083;-60
2022/07/02 02:45:48;;;;;;;4.87;3.05;;;;;;;20.69;57.62;100724.73;1617908;89;21078;-60
2022/07/02 02:48:18;;;;;;;4.45;3.20;;;;;;;20.69;57.43;100724.73;1604282;89;21089;-61
2022/07/02 02:50:48;;;;;;;7.70;3.67;;;;;;;20.73;57.21;100726.45;1628587;88;21103;-61
2022/07/02 02:53:17;;;;;;;3.52;2.75;;;;;;;20.72;57.12;100724.77;1630653;88;21077;-61
2022/07/02 02:55:46;;;;;;;8.28;3.33;;;;;;;20.72;57.18;100720.59;1625744;88;21123;-62
2022/07/02 02:58:16;;;;;;;4.67;3.10;;;;;;;20.69;57.17;100726.67;1629864;88;21110;-60
2022/07/02 03:00:45;;;;;;;4.40;2.90;;;;;;;20.70;57.16;100739.49;1616921;89;21502;-61
2022/07/02 03:03:16;;;;;;;3.92;2.90;;;;;;;20.72;56.91;100731.17;1604205;89;21092;-61
2022/07/02 03:05:45;;;;;;;4.45;3.10;;;;;;;20.76;56.55;100740.70;1631850;88;21095;-61
2022/07/02 03:08:14;;;;;;;4.22;2.58;;;;;;;20.78;56.27;100746.86;1631843;88;21103;-61
2022/07/02 03:10:44;;;;;;;4.67;3.22;;;;;;;20.80;55.88;100743.81;1626231;88;21566;-60
2022/07/02 03:13:15;;;;;;;8.05;3.30;;;;;;;20.84;55.75;100747.80;1629415;88;21051;-60
2022/07/02 03:15:45;;;;;;;5.00;3.10;;;;;;;20.85;55.82;100757.30;1617516;89;21054;-62
2022/07/02 03:18:15;;;;;;;6.50;3.17;;;;;;;20.87;55.67;100759.27;1617174;87;21098;-61
2022/07/02 03:20:44;;;;;;;4.37;2.90;;;;;;;20.87;55.67;100757.88;1641281;86;21103;-62
2022/07/02 03:23:15;;;;;;;4.35;2.83;;;;;;;20.89;55.66;100756.23;1640932;87;21075;-60
2022/07/02 03:25:44;;;;;;;7.78;3.10;;;;;;;20.91;55.49;100762.94;1639425;87;21498;-60
2022/07/02 03:28:13;;;;;;;6.70;3.37;;;;;;;20.92;55.54;100758.50;1638998;87;21019;-61
2022/07/02 03:30:44;;;;;;;7.17;3.30;;;;;;;20.93;55.49;100762.98;1640535;87;21055;-61
2022/07/02 03:33:13;;;;;;;4.42;3.02;;;;;;;20.98;55.49;100764.44;1638856;87;21477;-63
2022/07/02 03:35:42;;;;;;;7.47;3.20;;;;;;;21.00;55.55;100769.20;1640302;87;21138;-61
2022/07/02 03:38:12;;;;;;;4.58;3.00;;;;;;;21.01;55.58;100770.89;1640950;86;21149;-63
2022/07/02 03:40:42;;;;;;;3.83;2.92;;;;;;;21.06;55.51;100769.56;1640810;87;21285;-60
2022/07/02 03:43:12;;;;;;;5.70;3.00;;;;;;;21.08;55.39;100770.15;1639966;87;21090;-60
2022/07/02 03:45:41;;;;;;;5.75;3.50;;;;;;;21.09;55.38;100769.05;1631011;86;21031;-61
2022/07/02 03:48:10;;;;;;;6.28;3.10;;;;;;;21.08;55.38;100767.91;1641052;87;21122;-62
2022/07/02 03:50:44;;;;;;;4.33;2.90;;;;;;;21.11;55.39;100766.84;1640224;86;21128;-61
2022/07/02 03:53:14;;;;;;;4.75;3.33;;;;;;;21.13;55.18;100765.19;1639989;87;21047;-59
2022/07/02 03:55:44;;;;;;;5.67;3.27;;;;;;;21.15;54.97;100765.78;1629973;87;21456;-60
2022/07/02 03:58:14;;;;;;;3.67;3.05;;;;;;;21.16;54.86;100766.91;1639799;87;21063;-61
2022/07/02 04:00:43;;;;;;;7.25;3.55;;;;;;;21.16;54.99;100764.12;1640272;87;21094;-61
2022/07/02 04:03:13;;;;;;;5.75;3.42;;;;;;;21.16;54.90;100764.67;1640533;87;21043;-61
2022/07/02 04:05:43;;;;;;;4.87;3.27;;;;;;;21.14;54.99;100765.48;1641154;87;21094;-61
2022/07/02 04:08:15;;;;;;;5.33;3.12;;;;;;;21.09;55.04;100762.63;1639609;87;21055;-62
2022/07/02 04:10:44;;;;;;;6.97;3.20;;;;;;;21.07;55.17;100757.31;1639430;87;21129;-61
2022/07/02 04:13:15;;;;;;;8.33;3.58;;;;;;;21.07;55.12;100757.31;1640690;87;21010;-61
2022/07/02 04:15:45;;;;;;;4.42;3.25;;;;;;;21.08;55.13;100758.16;1640779;86;21097;-61
2022/07/02 04:18:15;;;;;;;3.58;3.17;;;;;;;21.11;55.01;100762.66;1639812;87;21030;-62
2022/07/02 04:20:44;;;;;;;6.22;3.20;;;;;;;21.16;54.88;100768.30;1638946;87;21126;-62
2022/07/02 04:23:13;;;;;;;5.92;3.30;;;;;;;21.21;54.71;100772.55;1640757;87;21019;-60
2022/07/02 04:25:44;;;;;;;7.75;3.08;;;;;;;21.24;54.58;100771.77;1639171;87;21026;-59
2022/07/02 04:28:13;;;;;;;5.92;3.65;;;;;;;21.21;54.56;100778.12;1639885;86;21083;-61
2022/07/02 04:30:42;;;;;;;5.72;3.75;;;;;;;21.23;54.68;100774.27;1641161;87;21446;-62
2022/07/02 04:33:10;;;;;;;5.40;3.45;;;;;;;21.24;54.67;100773.17;1640765;87;21007;-61
2022/07/02 04:35:40;;;;;;;6.30;3.47;;;;;;;21.25;54.88;100784.05;1641176;87;21105;-61
2022/07/02 04:38:10;;;;;;;6.83;3.35;;;;;;;21.29;54.87;100787.17;1640133;87;21003;-61
2022/07/02 04:40:40;;;;;;;8.75;3.50;;;;;;;21.33;54.90;100789.73;1639955;86;21558;-60
2022/07/02 04:43:10;;;;;;;7.83;3.72;;;;;;;21.38;54.79;100792.58;1640687;87;21059;-61
2022/07/02 04:45:40;;;;;;;7.28;3.90;;;;;;;21.40;54.71;100787.03;1640655;87;21512;-61
2022/07/02 04:48:10;;;;;;;7.12;3.80;;;;;;;21.46;54.69;100794.94;1641058;86;21065;-62
2022/07/02 04:50:40;;;;;;;7.92;3.80;;;;;;;21.49;54.52;100798.05;1640262;87;21080;-62
2022/07/02 04:53:10;;;;;;;5.92;3.40;;;;;;;21.56;54.34;100801.19;1640299;86;21086;-61
2022/07/02 04:55:39;;;;;;;9.78;3.55;;;;;;;21.62;54.23;100807.97;1639266;87;21050;-63
2022/07/02 04:58:09;;;;;;;8.23;3.37;;;;;;;21.68;54.14;100808.31;1631379;86;21039;-61
2022/07/02 05:00:39;;;;;;;8.08;3.42;;;;;;;21.79;53.75;100798.95;1639720;87;21046;-60
2022/07/02 05:03:09;;;;;;;8.63;3.47;;;;;;;21.95;53.32;100806.09;1629331;87;20995;-62
2022/07/02 05:05:39;;;;;;;5.22;3.20;;;;;;;22.14;52.71;100811.66;1639244;87;21494;-61
2022/07/02 05:08:08;;;;;;;5.87;3.45;;;;;;;22.38;52.32;100814.39;1630010;87;21106;-62
2022/07/02 05:10:39;;;;;;;9.83;3.42;;;;;;;22.65;51.59;100815.73;1640250;86;21055;-62
2022/07/02 05:13:09;;;;;;;5.42;3.08;;;;;;;22.91;50.96;100808.43;1640634;87;21054;-61
2022/07/02 05:15:40;;;;;;;6.28;2.65;;;;;;;23.20;50.34;100808.88;1638928;87;21071;-61
2022/07/02 05:18:08;;;;;;;5.78;3.00;;;;;;;23.44;49.48;100811.25;1640067;87;21058;-61
2022/07/02 05:20:38;;;;;;;7.08;3.27;;;;;;;23.66;48.73;100816.97;1648313;86;21563;-62
2022/07/02 05:23:08;;;;;;;7.22;3.15;;;;;;;23.88;48.32;100822.36;1649313;87;21166;-62
2022/07/02 05:25:37;;;;;;;7.90;3.35;;;;;;;24.13;47.75;100818.80;1649752;87;21114;-62
2022/07/02 05:28:06;;;;;;;6.80;3.30;;;;;;;24.37;47.33;100822.50;1626968;87;21112;-62
2022/07/02 05:30:36;;;;;;;4.15;3.12;;;;;;;24.62;47.00;100819.14;1646497;87;21065;-61
2022/07/02 05:33:05;;;;;;;9.38;3.17;;;;;;;24.86;45.29;100822.79;1647164;86;21043;-61
2022/07/02 05:35:35;;;;;;;7.95;3.00;;;;;;;24.99;45.42;100830.66;1622307;88;21361;-61
2022/07/02 05:38:05;;;;;;;8.35;3.12;;;;;;;25.24;44.83;100825.55;1654184;87;21072;-61
2022/07/02 05:40:34;;;;;;;4.67;3.20;;;;;;;25.47;43.97;100813.70;1646772;87;21128;-62
2022/07/02 05:43:04;;;;;;;8.33;3.05;;;;;;;25.76;43.23;100821.47;1647056;87;21463;-62
2022/07/02 05:45:35;;;;;;;7.90;3.55;;;;;;;25.99;43.13;100820.77;1622327;88;21467;-62
2022/07/02 05:48:07;;;;;;;7.90;3.60;;;;;;;26.23;42.41;100815.30;1654997;86;21096;-62
2022/07/02 05:50:37;;;;;;;4.37;2.85;;;;;;;26.36;41.69;100811.86;1647124;87;21087;-61
2022/07/02 05:53:08;;;;;;;5.20;3.10;;;;;;;26.39;41.45;100806.22;1646617;87;21503;-61
2022/07/02 05:55:39;;;;;;;5.45;3.15;;;;;;;26.43;41.33;100815.75;1622566;88;21135;-61
2022/07/02 05:58:08;;;;;;;6.67;3.02;;;;;;;26.58;40.65;100817.59;1658121;86;21512;-61
2022/07/02 06:00:39;;;;;;;7.58;2.92;;;;;;;26.72;40.06;100822.83;1634483;86;21072;-62
2022/07/02 06:03:09;;;;;;;5.72;2.50;;;;;;;26.87;39.15;100830.29;1635161;87;21050;-62
2022/07/02 06:08:27;;;;;;;5.20;2.90;;;;;;;27.07;38.31;100838.55;1649539;87;21082;-61
2022/07/02 06:10:56;;;;;;;5.10;2.42;;;;;;;27.23;38.45;100843.45;1624049;88;21081;-61
2022/07/02 06:13:25;;;;;;;4.22;2.52;;;;;;;27.40;38.14;100843.84;1623246;87;21058;-63
2022/07/02 06:15:54;;;;;;;8.15;2.80;;;;;;;27.69;37.34;100847.45;1657256;86;21093;-63
2022/07/02 06:18:25;;;;;;;8.18;2.98;;;;;;;27.84;36.94;100846.42;1609561;89;21061;-63
2022/07/02 06:20:54;;;;;;;7.12;2.65;;;;;;;27.93;36.49;100846.02;1559964;90;21155;-62
2022/07/02 06:23:23;;;;;;;6.03;2.55;;;;;;;28.03;36.36;100843.66;1567635;91;21121;-62
2022/07/02 06:25:53;;;;;;;7.90;3.30;;;;;;;28.17;36.16;100845.98;1568062;91;21054;-61
2022/07/02 06:28:23;;;;;;;9.88;3.10;;;;;;;28.36;35.66;100847.41;1577290;91;21077;-62
2022/07/02 06:30:52;;;;;;;5.10;2.80;;;;;;;28.54;35.59;100849.95;1567304;91;21087;-62
2022/07/02 06:33:22;;;;;;;6.00;2.77;;;;;;;28.75;34.86;100851.88;1566204;91;21104;-63
2022/07/02 06:35:52;;;;;;;6.67;2.70;;;;;;;28.83;34.84;100848.36;1607207;89;21086;-62
2022/07/02 06:38:21;;;;;;;6.50;2.60;;;;;;;28.88;34.99;100853.94;1607193;89;21490;-61
2022/07/02 06:40:53;;;;;;;4.47;2.70;;;;;;;28.89;34.56;100863.50;1607119;89;21119;-61
2022/07/02 06:43:24;;;;;;;5.37;2.55;;;;;;;28.92;34.70;100865.70;1643210;86;21083;-63
2022/07/02 06:45:53;;;;;;;4.22;2.45;;;;;;;29.16;34.39;100864.72;1652626;85;21049;-62
2022/07/02 06:48:24;;;;;;;5.95;2.77;;;;;;;29.40;33.95;100860.34;1662232;86;21446;-63
2022/07/02 06:50:55;;;;;;;6.00;3.02;;;;;;;29.58;33.71;100867.91;1651512;86;21030;-62
2022/07/02 06:53:25;;;;;;;6.33;2.70;;;;;;;29.69;33.04;100865.70;1662020;86;21050;-62
2022/07/02 06:55:55;;;;;;;3.85;2.70;;;;;;;29.48;33.18;100864.70;1622748;88;21094;-64
2022/07/02 06:58:24;;;;;;;7.80;2.98;;;;;;;29.61;33.53;100858.80;1612207;88;21635;-62
2022/07/02 07:00:54;;;;;;;8.05;3.33;;;;;;;29.88;33.06;100855.95;1610078;88;21063;-62
2022/07/02 07:03:24;;;;;;;7.55;3.20;;;;;;;30.01;32.71;100863.34;1617069;88;21035;-62
2022/07/02 07:05:53;;;;;;;4.75;2.77;;;;;;;30.05;32.67;100872.89;1602634;89;21135;-63
2022/07/02 07:08:31;;;;;;;8.00;3.17;;;;;;;30.01;32.77;100874.65;1608674;89;21055;-61
2022/07/02 07:11:01;;;;;;;5.12;2.50;;;;;;;30.02;32.47;100871.54;1601712;89;21106;-62
2022/07/02 07:13:30;;;;;;;8.78;3.42;;;;;;;30.09;32.06;100868.28;1602816;89;21095;-62
2022/07/02 07:16:01;;;;;;;4.80;2.80;;;;;;;30.10;32.58;100862.89;1616299;89;21497;-63
2022/07/02 07:18:31;;;;;;;6.83;2.65;;;;;;;30.18;31.79;100865.80;1603914;89;21065;-64
2022/07/02 07:21:02;;;;;;;6.92;2.40;;;;;;;30.08;32.07;100866.61;1646422;86;21084;-62
2022/07/02 07:23:33;;;;;;;5.55;2.75;;;;;;;30.35;31.34;100870.78;1657321;86;21110;-62
2022/07/02 07:26:02;;;;;;;10.38;2.67;;;;;;;30.59;30.95;100867.14;1643770;87;21080;-61
2022/07/02 07:28:32;;;;;;;18.48;2.98;;;;;;;30.54;31.02;100863.53;1628998;87;21050;-62
2022/07/02 07:31:03;;;;;;;5.92;2.85;;;;;;;30.67;31.26;100861.87;1639373;87;21110;-62
2022/07/02 07:33:33;;;;;;;8.53;2.60;;;;;;;30.81;30.77;100864.05;1627637;87;21066;-61
2022/07/02 07:36:02;;;;;;;7.50;2.65;;;;;;;30.80;30.42;100860.38;1623748;87;21062;-60
2022/07/02 07:38:32;;;;;;;5.80;2.55;;;;;;;30.89;30.40;100863.27;1629183;88;21521;-62
2022/07/02 07:41:01;;;;;;;5.20;2.72;;;;;;;31.03;30.19;100863.19;1629150;87;21054;-63
2022/07/02 07:43:31;;;;;;;7.78;2.80;;;;;;;31.26;30.37;100868.30;1621612;87;21073;-62
2022/07/02 07:46:01;;;;;;;5.55;2.55;;;;;;;31.36;29.62;100866.59;1633530;87;21073;-62
2022/07/02 07:48:31;;;;;;;5.12;2.35;;;;;;;31.39;29.73;100862.53;1642649;86;21487;-62
2022/07/02 07:51:00;;;;;;;7.35;2.75;;;;;;;31.55;29.31;100858.67;1637803;87;21498;-61
2022/07/02 07:53:29;;;;;;;8.00;2.60;;;;;;;31.60;28.95;100867.03;1618221;88;21066;-60
2022/07/02 07:55:59;;;;;;;11.55;2.80;;;;;;;31.43;29.41;100869.80;1628910;87;20999;-61
2022/07/02 07:58:29;;;;;;;8.05;2.70;;;;;;;31.51;29.47;100874.08;1640633;86;21502;-65
2022/07/02 08:01:03;;;;;;;5.95;2.92;;;;;;;31.61;29.19;100871.53;1626587;87;22407;-60
2022/07/02 08:03:34;;;;;;;6.05;2.40;;;;;;;31.61;29.77;100867.28;1634409;87;21062;-61
2022/07/02 08:06:03;;;;;;;3.98;2.27;;;;;;;31.81;28.96;100869.55;1621616;87;21565;-63
2022/07/02 08:08:33;;;;;;;6.55;2.33;;;;;;;32.10;28.42;100869.56;1628954;87;21055;-60
2022/07/02 08:11:03;;;;;;;4.35;2.20;;;;;;;32.22;27.61;100875.41;1654747;86;21087;-63
2022/07/02 08:13:33;;;;;;;6.28;2.62;;;;;;;32.07;27.40;100876.73;1635691;87;21089;-61
2022/07/02 08:16:05;;;;;;;5.90;2.42;;;;;;;32.00;28.15;100882.63;1619534;87;21202;-62
2022/07/02 08:18:34;;;;;;;4.55;2.62;;;;;;;32.06;28.42;100872.22;1635738;87;21814;-65
2022/07/02 08:21:03;;;;;;;4.28;2.80;;;;;;;31.98;28.37;100877.87;1633645;87;21102;-62
2022/07/02 08:23:32;;;;;;;7.85;3.00;;;;;;;32.03;29.03;100883.39;1608554;88;22014;-64
2022/07/02 08:26:01;;;;;;;4.83;2.55;;;;;;;32.25;28.72;100879.62;1659222;86;21066;-63
2022/07/02 08:28:33;;;;;;;5.12;2.35;;;;;;;32.36;28.23;100873.29;1657297;86;21114;-63
2022/07/02 08:31:02;;;;;;;8.28;2.58;;;;;;;32.32;27.92;100880.80;1631342;86;21479;-62
2022/07/02 08:33:31;;;;;;;6.35;2.30;;;;;;;32.16;28.67;100879.58;1660242;86;21027;-62
2022/07/02 08:36:02;;;;;;;6.05;2.22;;;;;;;32.25;26.93;100884.70;1662980;84;21118;-61
2022/07/02 08:38:31;;;;;;;8.70;2.50;;;;;;;32.28;26.85;100896.81;1664400;85;21038;-63
2022/07/02 08:41:02;;;;;;;3.67;2.42;;;;;;;32.22;26.60;100893.84;1677726;84;21049;-62
2022/07/02 08:43:31;;;;;;;7.00;2.30;;;;;;;32.27;26.33;100880.95;1675695;84;21061;-63
2022/07/02 08:46:04;;;;;;;6.12;2.30;;;;;;;32.36;26.55;100879.55;1668858;85;22116;-63
2022/07/02 08:48:33;;;;;;;6.62;2.30;;;;;;;32.36;26.50;100888.06;1677842;84;21033;-62
2022/07/02 08:51:03;;;;;;;5.17;2.52;;;;;;;32.38;26.56;100882.30;1669676;85;21062;-63
2022/07/02 08:53:34;;;;;;;7.33;2.33;;;;;;;32.48;26.07;100883.39;1637919;85;21459;-62
2022/07/02 08:56:04;;;;;;;4.70;2.33;;;;;;;32.45;26.07;100874.71;1660144;84;21118;-64
2022/07/02 08:58:36;;;;;;;4.78;2.20;;;;;;;32.45;26.17;100878.38;1664763;85;21039;-62
2022/07/02 09:01:08;;;;;;;7.28;2.60;;;;;;;32.58;25.98;100875.74;1667350;85;21050;-64
2022/07/02 09:03:38;;;;;;;10.03;2.30;;;;;;;32.72;25.36;100882.08;1628703;88;21098;-63
2022/07/02 09:06:07;;;;;;;8.65;2.42;;;;;;;32.78;25.37;100885.03;1615441;88;21074;-64
2022/07/02 09:08:36;;;;;;;9.33;2.27;;;;;;;32.80;25.26;100875.59;1625857;88;21482;-64
2022/07/02 09:11:05;;;;;;;3.50;1.92;;;;;;;32.78;25.24;100887.86;1608366;89;21088;-63
2022/07/02 09:13:35;;;;;;;5.45;2.37;;;;;;;32.52;25.14;100882.76;1634919;87;21471;-63
2022/07/02 09:16:06;;;;;;;4.00;2.05;;;;;;;32.30;25.42;100878.88;1623389;88;21054;-62
2022/07/02 09:18:35;;;;;;;3.65;2.40;;;;;;;32.25;25.67;100874.78;1640224;87;21190;-63
2022/07/02 09:21:07;;;;;;;7.45;3.05;;;;;;;32.31;24.96;100872.03;1634814;86;21137;-63
2022/07/02 09:23:40;;;;;;;4.55;2.12;;;;;;;32.36;25.41;100877.55;1617155;89;21047;-62
2022/07/02 09:26:18;;;;;;;3.65;2.20;;;;;;;32.24;24.88;100879.34;1581836;89;21051;-63
2022/07/02 09:28:55;;;;;;;4.25;2.08;;;;;;;32.09;24.03;100873.56;1633515;86;21102;-61
2022/07/02 09:31:25;;;;;;;5.78;2.00;;;;;;;31.93;23.96;100883.12;1617595;89;21479;-62
2022/07/02 09:33:55;;;;;;;4.70;2.40;;;;;;;31.71;24.78;100878.94;1604290;89;21025;-63
2022/07/02 09:36:24;;;;;;;7.40;2.20;;;;;;;31.59;25.17;100881.52;1620432;88;21067;-63
2022/07/02 09:38:55;;;;;;;4.47;2.15;;;;;;;31.45;24.50;100879.64;1616759;89;21094;-62
2022/07/02 09:41:24;;;;;;;6.78;2.12;;;;;;;31.33;24.21;100881.41;1604079;89;21065;-62
2022/07/02 09:43:58;;;;;;;4.65;2.45;;;;;;;31.20;24.43;100874.64;1628305;88;21056;-63
2022/07/02 09:46:27;;;;;;;3.37;2.30;;;;;;;31.06;24.69;100883.20;1622032;88;21071;-63
2022/07/02 09:49:07;;;;;;;9.93;2.40;;;;;;;30.89;24.89;100879.67;1624982;88;21082;-63
2022/07/02 09:51:50;;;;;;;3.72;1.98;;;;;;;30.64;24.65;100883.15;1617614;89;21511;-62
2022/07/02 09:54:24;;;;;;;3.12;2.00;;;;;;;30.22;25.39;100880.97;1614523;89;21007;-62
2022/07/02 09:56:55;;;;;;;3.30;2.00;;;;;;;30.05;25.61;100876.55;1611570;89;21066;-62
2022/07/02 09:59:24;;;;;;;6.60;2.30;;;;;;;30.02;25.44;100876.36;1614167;89;21488;-62
2022/07/02 10:01:54;;;;;;;4.90;2.30;;;;;;;29.89;25.94;100870.34;1611519;89;21059;-63
2022/07/02 10:04:31;;;;;;;3.60;2.27;;;;;;;29.85;25.95;100866.47;1614175;88;21026;-62
2022/07/02 10:07:01;;;;;;;6.42;2.55;;;;;;;29.83;26.45;100870.19;1602706;89;21078;-62
2022/07/02 10:09:31;;;;;;;2.98;2.40;;;;;;;29.82;26.61;100874.17;1611922;89;21098;-62
2022/07/02 10:12:02;;;;;;;5.22;2.62;;;;;;;29.75;26.29;100872.92;1598984;89;21099;-62
2022/07/02 10:14:32;;;;;;;3.35;2.30;;;;;;;29.57;26.15;100877.52;1608667;88;21654;-63
2022/07/02 10:17:02;;;;;;;4.83;2.22;;;;;;;29.57;26.15;100877.52;1592773;89;21535;-64
2022/07/02 10:19:31;;;;;;;6.92;2.30;;;;;;;29.49;25.81;100871.20;1611642;88;21078;-60
2022/07/02 10:22:01;;;;;;;6.40;2.58;;;;;;;29.49;25.81;100871.20;1591461;88;21084;-61
2022/07/02 10:24:31;;;;;;;6.30;2.62;;;;;;;29.47;26.29;100872.92;1610872;89;21060;-62
2022/07/02 10:27:01;;;;;;;5.20;2.70;;;;;;;29.47;26.26;100874.91;1614142;89;21051;-61
2022/07/02 10:29:32;;;;;;;4.37;2.33;;;;;;;29.44;26.30;100876.95;1615665;89;21067;-61
2022/07/02 10:32:28;;;;;;;7.28;2.37;;;;;;;29.29;26.69;100866.18;1609115;89;22082;-62
2022/07/02 10:35:11;;;;;;;3.65;2.20;;;;;;;29.29;26.69;100866.18;1608667;88;21062;-61
2022/07/02 10:37:40;;;;;;;4.62;2.17;;;;;;;29.35;26.24;100869.17;1601546;89;21058;-60
2022/07/02 10:40:12;;;;;;;4.67;1.90;;;;;;;29.25;26.39;100869.33;1588120;89;21063;-60
2022/07/02 10:42:44;;;;;;;3.95;2.65;;;;;;;29.19;26.28;100876.22;1609654;88;21216;-61
2022/07/02 10:45:17;;;;;;;6.28;2.58;;;;;;;29.12;26.51;100859.43;1616896;88;21043;-61
2022/07/02 10:48:03;;;;;;;2.37;2.00;;;;;;;29.15;26.82;100866.70;1603623;89;21506;-62
2022/07/02 10:50:40;;;;;;;6.08;1.90;;;;;;;29.22;26.34;100861.48;1631177;88;21071;-60
2022/07/02 10:53:22;;;;;;;3.72;2.02;;;;;;;29.28;26.50;100855.20;1631238;88;21066;-60
2022/07/02 10:56:02;;;;;;;6.47;2.00;;;;;;;29.35;26.14;100859.28;1619389;88;21118;-60
2022/07/02 10:58:36;;;;;;;3.95;2.30;;;;;;;29.31;26.04;100855.41;1601407;89;21080;-61
2022/07/02 11:01:15;;;;;;;4.45;2.05;;;;;;;29.25;26.11;100855.22;1616410;89;21108;-60
2022/07/02 11:04:01;;;;;;;4.80;2.17;;;;;;;29.27;25.43;100850.13;1601548;89;21507;-62
2022/07/02 11:06:32;;;;;;;4.63;2.20;;;;;;;29.16;25.69;100846.38;1631734;88;21067;-62
2022/07/02 11:09:04;;;;;;;5.80;2.10;;;;;;;28.94;26.25;100834.36;1621827;88;21608;-61
2022/07/02 11:11:40;;;;;;;3.17;1.95;;;;;;;28.83;26.53;100841.30;1616551;88;21042;-62
2022/07/02 11:14:16;;;;;;;5.35;2.00;;;;;;;28.83;26.36;100841.30;1595399;89;21093;-62
2022/07/02 11:16:52;;;;;;;2.30;1.92;;;;;;;28.71;26.40;100833.33;1627288;88;21067;-63
2022/07/02 11:19:26;;;;;;;3.80;1.95;;;;;;;28.55;26.31;100825.67;1628698;88;21083;-62
2022/07/02 11:21:58;;;;;;;4.05;2.12;;;;;;;28.51;26.65;100830.83;1627408;86;21086;-69
2022/07/02 11:24:30;;;;;;;3.20;2.37;;;;;;;28.48;26.74;100825.22;1631035;87;21127;-69
2022/07/02 11:26:59;;;;;;;3.33;2.12;;;;;;;28.41;26.83;100822.80;1616814;89;21086;-70
2022/07/02 11:29:29;;;;;;;2.90;1.77;;;;;;;28.40;26.62;100825.92;1602749;89;21512;-65
2022/07/02 11:31:58;;;;;;;4.65;1.87;;;;;;;28.34;26.79;100822.92;1616240;89;21544;-69
2022/07/02 11:34:29;;;;;;;5.28;2.50;;;;;;;28.35;26.71;100823.19;1617648;88;21252;-70
2022/07/02 11:36:59;;;;;;;3.83;1.90;;;;;;;28.39;27.19;100822.27;1617444;88;21095;-70
2022/07/02 11:39:29;;;;;;;3.85;2.17;;;;;;;28.47;26.64;100824.96;1592269;89;21147;-71
2022/07/02 11:41:58;;;;;;;3.08;2.10;;;;;;;28.49;25.76;100818.45;1629355;88;21070;-69
2022/07/02 11:44:28;;;;;;;3.37;1.80;;;;;;;28.44;25.71;100817.12;1627543;88;21094;-70
2022/07/02 11:47:00;;;;;;;4.80;2.10;;;;;;;28.40;26.08;100821.13;1616116;89;21523;-71